Terminal Aerodrome Forecast
Issued by NWS

Home | Current Version | Previous Version | Text Only | Print | Product List | Glossary On
Versions: 1 2 3 4 5 6 7 8 9 10 11 12 13 14 15 16 17 18 19
000
FTUS43 KSGF 241724
TAFBBG
TAF
KBBG 241724Z 2418/2518 16015KT P6SM VCSH OVC045
     FM242000 16012KT P6SM SHRA OVC025
      TEMPO 2420/2424 4SM TS OVC015CB
     FM250000 16011KT 4SM SHRA VCTS OVC030CB
     FM250100 16010KT 4SM SHRA VCTS OVC015CB
     FM250500 16007KT 6SM SHRA VCTS BKN050CB
     FM250900 20006KT P6SM BKN040
     FM251200 18005KT 5SM -SHRA BKN025
     FM251400 22007KT 6SM -SHRA BKN035=

USA.gov is the U.S. government's official web portal to all federal, state and local government web resources and services.